sensor_id;sensor_type;location;lat;lon;timestamp;temperature;humidity
48007;DHT22;33771;48.180;11.400;2022-12-18T00:03:40;-4.20;99.90
48007;DHT22;33771;48.180;11.400;2022-12-18T00:06:06;-4.20;99.90
48007;DHT22;33771;48.180;11.400;2022-12-18T00:08:31;-4.20;99.90
48007;DHT22;33771;48.180;11.400;2022-12-18T00:11:04;-4.30;99.90
48007;DHT22;33771;48.180;11.400;2022-12-18T00:13:30;-4.30;99.90
48007;DHT22;33771;48.180;11.400;2022-12-18T00:15:55;-4.40;99.90
48007;DHT22;33771;48.180;11.400;2022-12-18T00:18:26;-4.50;99.90
48007;DHT22;33771;48.180;11.400;2022-12-18T00:20:51;-4.50;99.90
48007;DHT22;33771;48.180;11.400;2022-12-18T00:23:17;-4.60;99.90
48007;DHT22;33771;48.180;11.400;2022-12-18T00:25:42;-4.60;99.90
48007;DHT22;33771;48.180;11.400;2022-12-18T00:28:08;-4.60;99.90
48007;DHT22;33771;48.180;11.400;2022-12-18T00:30:33;-4.60;99.90
48007;DHT22;33771;48.180;11.400;2022-12-18T00:32:59;-4.60;99.90
48007;DHT22;33771;48.180;11.400;2022-12-18T00:35:25;-4.70;99.90
48007;DHT22;33771;48.180;11.400;2022-12-18T00:37:50;-4.80;99.90
48007;DHT22;33771;48.180;11.400;2022-12-18T00:40:16;-4.80;99.90
48007;DHT22;33771;48.180;11.400;2022-12-18T00:42:41;-4.80;99.90
48007;DHT22;33771;48.180;11.400;2022-12-18T00:45:28;-4.80;99.90
48007;DHT22;33771;48.180;11.400;2022-12-18T00:47:54;-4.90;99.90
48007;DHT22;33771;48.180;11.400;2022-12-18T00:50:21;-4.90;99.90
48007;DHT22;33771;48.180;11.400;2022-12-18T00:52:47;-4.90;99.90
48007;DHT22;33771;48.180;11.400;2022-12-18T00:55:13;-5.00;99.90
48007;DHT22;33771;48.180;11.400;2022-12-18T00:57:39;-5.00;99.90
48007;DHT22;33771;48.180;11.400;2022-12-18T01:00:07;-5.00;99.90
48007;DHT22;33771;48.180;11.400;2022-12-18T01:02:34;-5.00;99.90
48007;DHT22;33771;48.180;11.400;2022-12-18T01:04:59;-5.00;99.90
48007;DHT22;33771;48.180;11.400;2022-12-18T01:07:25;-5.00;99.90
48007;DHT22;33771;48.180;11.400;2022-12-18T01:09:50;-5.00;99.90
48007;DHT22;33771;48.180;11.400;2022-12-18T01:12:16;-5.10;99.90
48007;DHT22;33771;48.180;11.400;2022-12-18T01:14:42;-5.10;99.90
48007;DHT22;33771;48.180;11.400;2022-12-18T01:17:07;-5.10;99.90
48007;DHT22;33771;48.180;11.400;2022-12-18T01:19:33;-5.10;99.90
48007;DHT22;33771;48.180;11.400;2022-12-18T01:21:59;-5.10;99.90
48007;DHT22;33771;48.180;11.400;2022-12-18T01:24:24;-5.10;99.90
48007;DHT22;33771;48.180;11.400;2022-12-18T01:26:50;-5.10;99.90
48007;DHT22;33771;48.180;11.400;2022-12-18T01:29:16;-5.10;99.90
48007;DHT22;33771;48.180;11.400;2022-12-18T01:31:41;-5.10;99.90
48007;DHT22;33771;48.180;11.400;2022-12-18T01:34:08;-5.20;99.90
48007;DHT22;33771;48.180;11.400;2022-12-18T01:36:35;-5.20;99.90
48007;DHT22;33771;48.180;11.400;2022-12-18T01:39:10;-5.20;99.90
48007;DHT22;33771;48.180;11.400;2022-12-18T01:41:37;-5.20;99.90
48007;DHT22;33771;48.180;11.400;2022-12-18T01:44:52;-5.30;99.90
48007;DHT22;33771;48.180;11.400;2022-12-18T01:47:36;-5.20;99.90
48007;DHT22;33771;48.180;11.400;2022-12-18T01:50:16;-5.30;99.90
48007;DHT22;33771;48.180;11.400;2022-12-18T01:52:45;-5.30;99.90
48007;DHT22;33771;48.180;11.400;2022-12-18T01:55:12;-5.30;99.90
48007;DHT22;33771;48.180;11.400;2022-12-18T01:57:39;-5.30;99.90
48007;DHT22;33771;48.180;11.400;2022-12-18T02:00:12;-5.30;99.90
48007;DHT22;33771;48.180;11.400;2022-12-18T02:02:39;-5.20;99.90
48007;DHT22;33771;48.180;11.400;2022-12-18T02:05:05;-5.20;99.90
48007;DHT22;33771;48.180;11.400;2022-12-18T02:10:19;-5.20;99.90
48007;DHT22;33771;48.180;11.400;2022-12-18T02:13:07;-5.20;99.90
48007;DHT22;33771;48.180;11.400;2022-12-18T02:18:45;-5.20;99.90
48007;DHT22;33771;48.180;11.400;2022-12-18T02:29:12;-5.10;99.90
48007;DHT22;33771;48.180;11.400;2022-12-18T02:31:58;-5.10;99.90
48007;DHT22;33771;48.180;11.400;2022-12-18T02:34:36;-5.00;99.90
48007;DHT22;33771;48.180;11.400;2022-12-18T02:37:05;-5.00;99.90
48007;DHT22;33771;48.180;11.400;2022-12-18T02:39:34;-5.00;99.90
48007;DHT22;33771;48.180;11.400;2022-12-18T02:42:01;-5.00;99.90
48007;DHT22;33771;48.180;11.400;2022-12-18T02:44:41;-4.90;99.90
48007;DHT22;33771;48.180;11.400;2022-12-18T02:47:10;-4.90;99.90
48007;DHT22;33771;48.180;11.400;2022-12-18T02:53:24;-4.80;99.90
48007;DHT22;33771;48.180;11.400;2022-12-18T02:58:46;-4.80;99.90
48007;DHT22;33771;48.180;11.400;2022-12-18T03:01:24;-4.70;99.90
48007;DHT22;33771;48.180;11.400;2022-12-18T03:03:56;-4.60;99.90
48007;DHT22;33771;48.180;11.400;2022-12-18T03:06:45;-4.60;99.90
48007;DHT22;33771;48.180;11.400;2022-12-18T03:09:19;-4.60;99.90
48007;DHT22;33771;48.180;11.400;2022-12-18T03:11:54;-4.60;99.90
48007;DHT22;33771;48.180;11.400;2022-12-18T03:14:41;-4.60;99.90
48007;DHT22;33771;48.180;11.400;2022-12-18T03:17:10;-4.60;99.90
48007;DHT22;33771;48.180;11.400;2022-12-18T03:19:39;-4.60;99.90
48007;DHT22;33771;48.180;11.400;2022-12-18T03:22:08;-4.60;99.90
48007;DHT22;33771;48.180;11.400;2022-12-18T03:24:34;-4.60;99.90
48007;DHT22;33771;48.180;11.400;2022-12-18T03:27:06;-4.70;99.90
48007;DHT22;33771;48.180;11.400;2022-12-18T03:29:48;-4.60;99.90
48007;DHT22;33771;48.180;11.400;2022-12-18T03:32:28;-4.60;99.90
48007;DHT22;33771;48.180;11.400;2022-12-18T03:34:58;-4.60;99.90
48007;DHT22;33771;48.180;11.400;2022-12-18T03:37:25;-4.70;99.90
48007;DHT22;33771;48.180;11.400;2022-12-18T03:39:50;-4.70;99.90
48007;DHT22;33771;48.180;11.400;2022-12-18T03:42:25;-4.70;99.90
48007;DHT22;33771;48.180;11.400;2022-12-18T03:47:38;-4.70;99.90
48007;DHT22;33771;48.180;11.400;2022-12-18T03:55:22;-4.70;99.90
48007;DHT22;33771;48.180;11.400;2022-12-18T03:57:49;-4.70;99.90
48007;DHT22;33771;48.180;11.400;2022-12-18T04:00:18;-4.70;99.90
48007;DHT22;33771;48.180;11.400;2022-12-18T04:02:48;-4.70;99.90
48007;DHT22;33771;48.180;11.400;2022-12-18T04:05:17;-4.70;99.90
48007;DHT22;33771;48.180;11.400;2022-12-18T04:07:45;-4.70;99.90
48007;DHT22;33771;48.180;11.400;2022-12-18T04:10:12;-4.60;99.90
48007;DHT22;33771;48.180;11.400;2022-12-18T04:12:38;-4.70;99.90
48007;DHT22;33771;48.180;11.400;2022-12-18T04:15:05;-4.70;99.90
48007;DHT22;33771;48.180;11.400;2022-12-18T04:17:31;-4.70;99.90
48007;DHT22;33771;48.180;11.400;2022-12-18T04:19:57;-4.70;99.90
48007;DHT22;33771;48.180;11.400;2022-12-18T04:22:22;-4.70;99.90
48007;DHT22;33771;48.180;11.400;2022-12-18T04:24:48;-4.70;99.90
48007;DHT22;33771;48.180;11.400;2022-12-18T04:27:13;-4.70;99.90
48007;DHT22;33771;48.180;11.400;2022-12-18T04:29:39;-4.70;99.90
48007;DHT22;33771;48.180;11.400;2022-12-18T04:32:05;-4.70;99.90
48007;DHT22;33771;48.180;11.400;2022-12-18T04:34:30;-4.70;99.90
48007;DHT22;33771;48.180;11.400;2022-12-18T04:36:56;-4.70;99.90
48007;DHT22;33771;48.180;11.400;2022-12-18T04:39:21;-4.70;99.90
48007;DHT22;33771;48.180;11.400;2022-12-18T04:41:47;-4.70;99.90
48007;DHT22;33771;48.180;11.400;2022-12-18T04:44:13;-4.70;99.90
48007;DHT22;33771;48.180;11.400;2022-12-18T04:46:38;-4.70;99.90
48007;DHT22;33771;48.180;11.400;2022-12-18T04:49:04;-4.70;99.90
48007;DHT22;33771;48.180;11.400;2022-12-18T04:51:30;-4.70;99.90
48007;DHT22;33771;48.180;11.400;2022-12-18T04:53:55;-4.70;99.90
48007;DHT22;33771;48.180;11.400;2022-12-18T04:56:21;-4.70;99.90
48007;DHT22;33771;48.180;11.400;2022-12-18T04:58:47;-4.70;99.90
48007;DHT22;33771;48.180;11.400;2022-12-18T05:01:14;-4.70;99.90
48007;DHT22;33771;48.180;11.400;2022-12-18T05:03:40;-4.70;99.90
48007;DHT22;33771;48.180;11.400;2022-12-18T05:06:06;-4.70;99.90
48007;DHT22;33771;48.180;11.400;2022-12-18T05:08:33;-4.70;99.90
48007;DHT22;33771;48.180;11.400;2022-12-18T05:11:00;-4.70;99.90
48007;DHT22;33771;48.180;11.400;2022-12-18T05:13:26;-4.70;99.90
48007;DHT22;33771;48.180;11.400;2022-12-18T05:15:52;-4.70;99.90
48007;DHT22;33771;48.180;11.400;2022-12-18T05:18:18;-4.70;99.90
48007;DHT22;33771;48.180;11.400;2022-12-18T05:20:44;-4.70;99.90
48007;DHT22;33771;48.180;11.400;2022-12-18T05:23:09;-4.70;99.90
48007;DHT22;33771;48.180;11.400;2022-12-18T05:25:35;-4.70;99.90
48007;DHT22;33771;48.180;11.400;2022-12-18T05:28:00;-4.70;99.90
48007;DHT22;33771;48.180;11.400;2022-12-18T05:30:26;-4.70;99.90
48007;DHT22;33771;48.180;11.400;2022-12-18T05:32:53;-4.70;99.90
48007;DHT22;33771;48.180;11.400;2022-12-18T05:35:18;-4.70;99.90
48007;DHT22;33771;48.180;11.400;2022-12-18T05:37:44;-4.70;99.90
48007;DHT22;33771;48.180;11.400;2022-12-18T05:40:11;-4.70;99.90
48007;DHT22;33771;48.180;11.400;2022-12-18T05:42:37;-4.70;99.90
48007;DHT22;33771;48.180;11.400;2022-12-18T05:45:02;-4.70;99.90
48007;DHT22;33771;48.180;11.400;2022-12-18T05:47:28;-4.70;99.90
48007;DHT22;33771;48.180;11.400;2022-12-18T05:49:54;-4.70;99.90
48007;DHT22;33771;48.180;11.400;2022-12-18T05:52:20;-4.70;99.90
48007;DHT22;33771;48.180;11.400;2022-12-18T05:54:45;-4.70;99.90
48007;DHT22;33771;48.180;11.400;2022-12-18T05:57:11;-4.70;99.90
48007;DHT22;33771;48.180;11.400;2022-12-18T05:59:37;-4.70;99.90
48007;DHT22;33771;48.180;11.400;2022-12-18T06:02:02;-4.70;99.90
48007;DHT22;33771;48.180;11.400;2022-12-18T06:04:28;-4.70;99.90
48007;DHT22;33771;48.180;11.400;2022-12-18T06:06:54;-4.80;99.90
48007;DHT22;33771;48.180;11.400;2022-12-18T06:09:19;-4.70;99.90
48007;DHT22;33771;48.180;11.400;2022-12-18T06:11:45;-4.70;99.90
48007;DHT22;33771;48.180;11.400;2022-12-18T06:14:11;-4.70;99.90
48007;DHT22;33771;48.180;11.400;2022-12-18T06:16:37;-4.70;99.90
48007;DHT22;33771;48.180;11.400;2022-12-18T06:19:04;-4.70;99.90
48007;DHT22;33771;48.180;11.400;2022-12-18T06:21:31;-4.70;99.90
48007;DHT22;33771;48.180;11.400;2022-12-18T06:23:56;-4.70;99.90
48007;DHT22;33771;48.180;11.400;2022-12-18T06:26:22;-4.70;99.90
48007;DHT22;33771;48.180;11.400;2022-12-18T06:28:48;-4.70;99.90
48007;DHT22;33771;48.180;11.400;2022-12-18T06:31:13;-4.70;99.90
48007;DHT22;33771;48.180;11.400;2022-12-18T06:33:39;-4.60;99.90
48007;DHT22;33771;48.180;11.400;2022-12-18T06:36:08;-4.60;99.90
48007;DHT22;33771;48.180;11.400;2022-12-18T06:38:35;-4.60;99.90
48007;DHT22;33771;48.180;11.400;2022-12-18T06:41:05;-4.60;99.90
48007;DHT22;33771;48.180;11.400;2022-12-18T06:43:31;-4.60;99.90
48007;DHT22;33771;48.180;11.400;2022-12-18T06:46:00;-4.60;99.90
48007;DHT22;33771;48.180;11.400;2022-12-18T06:48:25;-4.60;99.90
48007;DHT22;33771;48.180;11.400;2022-12-18T06:50:51;-4.60;99.90
48007;DHT22;33771;48.180;11.400;2022-12-18T06:53:16;-4.60;99.90
48007;DHT22;33771;48.180;11.400;2022-12-18T06:55:42;-4.60;99.90
48007;DHT22;33771;48.180;11.400;2022-12-18T06:58:08;-4.60;99.90
48007;DHT22;33771;48.180;11.400;2022-12-18T07:00:34;-4.60;99.90
48007;DHT22;33771;48.180;11.400;2022-12-18T07:02:59;-4.60;99.90
48007;DHT22;33771;48.180;11.400;2022-12-18T07:05:25;-4.60;99.90
48007;DHT22;33771;48.180;11.400;2022-12-18T07:07:50;-4.60;99.90
48007;DHT22;33771;48.180;11.400;2022-12-18T07:10:16;-4.60;99.90
48007;DHT22;33771;48.180;11.400;2022-12-18T07:12:41;-4.60;99.90
48007;DHT22;33771;48.180;11.400;2022-12-18T07:15:07;-4.60;99.90
48007;DHT22;33771;48.180;11.400;2022-12-18T07:17:33;-4.60;99.90
48007;DHT22;33771;48.180;11.400;2022-12-18T07:19:58;-4.70;99.90
48007;DHT22;33771;48.180;11.400;2022-12-18T07:22:25;-4.70;99.90
48007;DHT22;33771;48.180;11.400;2022-12-18T07:24:51;-4.70;99.90
48007;DHT22;33771;48.180;11.400;2022-12-18T07:27:17;-4.70;99.90
48007;DHT22;33771;48.180;11.400;2022-12-18T07:29:42;-4.80;99.90
48007;DHT22;33771;48.180;11.400;2022-12-18T07:32:08;-4.90;99.90
48007;DHT22;33771;48.180;11.400;2022-12-18T07:34:34;-4.90;99.90
48007;DHT22;33771;48.180;11.400;2022-12-18T07:37:00;-4.90;99.90
48007;DHT22;33771;48.180;11.400;2022-12-18T07:39:25;-4.90;99.90
48007;DHT22;33771;48.180;11.400;2022-12-18T07:41:51;-4.90;99.90
48007;DHT22;33771;48.180;11.400;2022-12-18T07:44:35;-4.90;99.90
48007;DHT22;33771;48.180;11.400;2022-12-18T07:47:01;-4.90;99.90
48007;DHT22;33771;48.180;11.400;2022-12-18T07:49:27;-5.00;99.90
48007;DHT22;33771;48.180;11.400;2022-12-18T07:51:55;-4.90;99.90
48007;DHT22;33771;48.180;11.400;2022-12-18T07:54:22;-5.00;99.90
48007;DHT22;33771;48.180;11.400;2022-12-18T07:56:48;-5.00;99.90
48007;DHT22;33771;48.180;11.400;2022-12-18T07:59:14;-5.00;99.90
48007;DHT22;33771;48.180;11.400;2022-12-18T08:01:39;-4.90;99.90
48007;DHT22;33771;48.180;11.400;2022-12-18T08:04:05;-4.90;99.90
48007;DHT22;33771;48.180;11.400;2022-12-18T08:06:31;-4.90;99.90
48007;DHT22;33771;48.180;11.400;2022-12-18T08:08:56;-4.90;99.90
48007;DHT22;33771;48.180;11.400;2022-12-18T08:11:24;-4.80;99.90
48007;DHT22;33771;48.180;11.400;2022-12-18T08:13:50;-4.80;99.90
48007;DHT22;33771;48.180;11.400;2022-12-18T08:16:16;-4.80;99.90
48007;DHT22;33771;48.180;11.400;2022-12-18T08:18:41;-4.80;99.90
48007;DHT22;33771;48.180;11.400;2022-12-18T08:21:15;-4.70;99.90
48007;DHT22;33771;48.180;11.400;2022-12-18T08:23:42;-4.70;99.90
48007;DHT22;33771;48.180;11.400;2022-12-18T08:26:08;-4.70;99.90
48007;DHT22;33771;48.180;11.400;2022-12-18T08:28:34;-4.60;99.90
48007;DHT22;33771;48.180;11.400;2022-12-18T08:31:00;-4.60;99.90
48007;DHT22;33771;48.180;11.400;2022-12-18T08:33:26;-4.60;99.90
48007;DHT22;33771;48.180;11.400;2022-12-18T08:35:52;-4.50;99.90
48007;DHT22;33771;48.180;11.400;2022-12-18T08:38:18;-4.50;99.90
48007;DHT22;33771;48.180;11.400;2022-12-18T08:40:43;-4.50;99.90
48007;DHT22;33771;48.180;11.400;2022-12-18T08:43:10;-4.50;99.90
48007;DHT22;33771;48.180;11.400;2022-12-18T08:45:55;-4.50;99.90
48007;DHT22;33771;48.180;11.400;2022-12-18T08:48:20;-4.50;99.90
48007;DHT22;33771;48.180;11.400;2022-12-18T08:50:57;-4.40;99.90
48007;DHT22;33771;48.180;11.400;2022-12-18T08:53:23;-4.40;99.90
48007;DHT22;33771;48.180;11.400;2022-12-18T08:55:49;-4.40;99.90
48007;DHT22;33771;48.180;11.400;2022-12-18T08:58:15;-4.30;99.90
48007;DHT22;33771;48.180;11.400;2022-12-18T09:00:40;-4.30;99.90
48007;DHT22;33771;48.180;11.400;2022-12-18T09:03:14;-4.30;99.90
48007;DHT22;33771;48.180;11.400;2022-12-18T09:05:40;-4.30;99.90
48007;DHT22;33771;48.180;11.400;2022-12-18T09:08:05;-4.20;99.90
48007;DHT22;33771;48.180;11.400;2022-12-18T09:10:31;-4.20;99.90
48007;DHT22;33771;48.180;11.400;2022-12-18T09:12:57;-4.20;99.90
48007;DHT22;33771;48.180;11.400;2022-12-18T09:15:22;-4.20;99.90
48007;DHT22;33771;48.180;11.400;2022-12-18T09:17:48;-4.20;99.90
48007;DHT22;33771;48.180;11.400;2022-12-18T09:20:15;-4.20;99.90
48007;DHT22;33771;48.180;11.400;2022-12-18T09:22:41;-4.20;99.90
48007;DHT22;33771;48.180;11.400;2022-12-18T09:25:06;-4.20;99.90
48007;DHT22;33771;48.180;11.400;2022-12-18T09:27:35;-4.30;99.90
48007;DHT22;33771;48.180;11.400;2022-12-18T09:30:01;-4.20;99.90
48007;DHT22;33771;48.180;11.400;2022-12-18T09:32:27;-4.20;99.90
48007;DHT22;33771;48.180;11.400;2022-12-18T09:34:53;-4.20;99.90
48007;DHT22;33771;48.180;11.400;2022-12-18T09:37:19;-4.20;99.90
48007;DHT22;33771;48.180;11.400;2022-12-18T09:39:44;-4.20;99.90
48007;DHT22;33771;48.180;11.400;2022-12-18T09:42:20;-4.10;99.90
48007;DHT22;33771;48.180;11.400;2022-12-18T09:44:49;-4.10;99.90
48007;DHT22;33771;48.180;11.400;2022-12-18T09:47:25;-4.00;99.90
48007;DHT22;33771;48.180;11.400;2022-12-18T09:49:58;-4.00;99.90
48007;DHT22;33771;48.180;11.400;2022-12-18T09:52:39;-4.00;99.90
48007;DHT22;33771;48.180;11.400;2022-12-18T09:57:49;-4.00;99.90
48007;DHT22;33771;48.180;11.400;2022-12-18T10:00:22;-4.00;99.90
48007;DHT22;33771;48.180;11.400;2022-12-18T10:02:49;-3.90;99.90
48007;DHT22;33771;48.180;11.400;2022-12-18T10:05:17;-3.70;99.90
48007;DHT22;33771;48.180;11.400;2022-12-18T10:07:59;-3.70;99.90
48007;DHT22;33771;48.180;11.400;2022-12-18T10:16:00;-3.40;99.90
48007;DHT22;33771;48.180;11.400;2022-12-18T10:26:44;-3.10;99.90
48007;DHT22;33771;48.180;11.400;2022-12-18T10:29:12;-3.10;99.90
48007;DHT22;33771;48.180;11.400;2022-12-18T10:31:38;-3.00;99.90
48007;DHT22;33771;48.180;11.400;2022-12-18T10:34:04;-3.00;99.90
48007;DHT22;33771;48.180;11.400;2022-12-18T10:36:30;-3.00;99.90
48007;DHT22;33771;48.180;11.400;2022-12-18T10:39:20;-2.90;99.90
48007;DHT22;33771;48.180;11.400;2022-12-18T10:41:48;-2.90;99.90
48007;DHT22;33771;48.180;11.400;2022-12-18T10:46:42;-3.00;99.90
48007;DHT22;33771;48.180;11.400;2022-12-18T10:49:23;-3.00;99.90
48007;DHT22;33771;48.180;11.400;2022-12-18T10:51:49;-3.00;99.90
48007;DHT22;33771;48.180;11.400;2022-12-18T10:54:24;-3.10;99.90
48007;DHT22;33771;48.180;11.400;2022-12-18T10:56:50;-3.10;99.90
48007;DHT22;33771;48.180;11.400;2022-12-18T10:59:17;-3.10;99.90
48007;DHT22;33771;48.180;11.400;2022-12-18T11:01:55;-3.10;99.90
48007;DHT22;33771;48.180;11.400;2022-12-18T11:04:31;-3.00;99.90
48007;DHT22;33771;48.180;11.400;2022-12-18T11:06:59;-3.10;99.90
48007;DHT22;33771;48.180;11.400;2022-12-18T11:09:34;-3.00;99.90
48007;DHT22;33771;48.180;11.400;2022-12-18T11:12:08;-3.00;99.90
48007;DHT22;33771;48.180;11.400;2022-12-18T11:14:47;-3.00;99.90
48007;DHT22;33771;48.180;11.400;2022-12-18T11:17:31;-3.00;99.90
48007;DHT22;33771;48.180;11.400;2022-12-18T11:19:59;-3.10;99.90
48007;DHT22;33771;48.180;11.400;2022-12-18T11:22:35;-3.20;99.90
48007;DHT22;33771;48.180;11.400;2022-12-18T11:27:38;-3.30;99.90
48007;DHT22;33771;48.180;11.400;2022-12-18T11:30:10;-3.30;99.90
48007;DHT22;33771;48.180;11.400;2022-12-18T11:32:41;-3.30;99.90
48007;DHT22;33771;48.180;11.400;2022-12-18T11:38:32;-3.20;99.90
48007;DHT22;33771;48.180;11.400;2022-12-18T11:43:54;-3.00;99.90
48007;DHT22;33771;48.180;11.400;2022-12-18T11:46:41;-3.00;99.90
48007;DHT22;33771;48.180;11.400;2022-12-18T11:49:19;-3.00;99.90
48007;DHT22;33771;48.180;11.400;2022-12-18T11:51:56;-3.00;99.90
48007;DHT22;33771;48.180;11.400;2022-12-18T11:54:23;-3.00;99.90
48007;DHT22;33771;48.180;11.400;2022-12-18T11:56:53;-3.10;99.90
48007;DHT22;33771;48.180;11.400;2022-12-18T11:59:44;-3.20;99.90
48007;DHT22;33771;48.180;11.400;2022-12-18T12:18:19;-3.60;99.90
48007;DHT22;33771;48.180;11.400;2022-12-18T12:23:52;-3.60;99.90
48007;DHT22;33771;48.180;11.400;2022-12-18T12:26:22;-3.60;99.90
48007;DHT22;33771;48.180;11.400;2022-12-18T12:31:43;-3.60;99.90
48007;DHT22;33771;48.180;11.400;2022-12-18T12:37:45;-3.70;99.90
48007;DHT22;33771;48.180;11.400;2022-12-18T12:40:20;-3.70;99.90
48007;DHT22;33771;48.180;11.400;2022-12-18T12:42:54;-3.70;99.90
48007;DHT22;33771;48.180;11.400;2022-12-18T12:53:55;-3.60;99.90
48007;DHT22;33771;48.180;11.400;2022-12-18T12:56:22;-3.60;99.90
48007;DHT22;33771;48.180;11.400;2022-12-18T13:04:35;-3.50;99.90
48007;DHT22;33771;48.180;11.400;2022-12-18T13:15:43;-3.40;99.90
48007;DHT22;33771;48.180;11.400;2022-12-18T13:18:21;-3.30;99.90
48007;DHT22;33771;48.180;11.400;2022-12-18T13:21:04;-3.30;99.90
48007;DHT22;33771;48.180;11.400;2022-12-18T13:23:37;-3.30;99.90
48007;DHT22;33771;48.180;11.400;2022-12-18T13:34:26;-3.40;99.90
48007;DHT22;33771;48.180;11.400;2022-12-18T13:37:41;-3.40;99.90
48007;DHT22;33771;48.180;11.400;2022-12-18T13:39:49;-3.40;99.90
48007;DHT22;33771;48.180;11.400;2022-12-18T13:48:32;-3.50;99.90
48007;DHT22;33771;48.180;11.400;2022-12-18T13:51:07;-3.70;99.90
48007;DHT22;33771;48.180;11.400;2022-12-18T13:56:28;-3.90;99.90
48007;DHT22;33771;48.180;11.400;2022-12-18T14:04:28;-4.10;99.90
48007;DHT22;33771;48.180;11.400;2022-12-18T14:09:47;-4.10;99.90
48007;DHT22;33771;48.180;11.400;2022-12-18T14:12:44;-4.10;99.90
48007;DHT22;33771;48.180;11.400;2022-12-18T14:15:31;-4.10;99.90
48007;DHT22;33771;48.180;11.400;2022-12-18T14:20:44;-4.00;99.90
48007;DHT22;33771;48.180;11.400;2022-12-18T14:23:40;-4.00;99.90
48007;DHT22;33771;48.180;11.400;2022-12-18T14:26:28;-4.00;99.90
48007;DHT22;33771;48.180;11.400;2022-12-18T14:28:59;-4.00;99.90
48007;DHT22;33771;48.180;11.400;2022-12-18T14:31:29;-4.00;99.90
48007;DHT22;33771;48.180;11.400;2022-12-18T14:33:55;-4.00;99.90
48007;DHT22;33771;48.180;11.400;2022-12-18T14:36:23;-4.10;99.90
48007;DHT22;33771;48.180;11.400;2022-12-18T14:38:56;-4.10;99.90
48007;DHT22;33771;48.180;11.400;2022-12-18T14:41:23;-4.20;99.90
48007;DHT22;33771;48.180;11.400;2022-12-18T14:43:51;-4.20;99.90
48007;DHT22;33771;48.180;11.400;2022-12-18T14:46:36;-4.30;99.90
48007;DHT22;33771;48.180;11.400;2022-12-18T14:49:30;-4.30;99.90
48007;DHT22;33771;48.180;11.400;2022-12-18T14:52:05;-4.40;99.90
48007;DHT22;33771;48.180;11.400;2022-12-18T14:54:32;-4.40;99.90
48007;DHT22;33771;48.180;11.400;2022-12-18T14:57:22;-4.50;99.90
48007;DHT22;33771;48.180;11.400;2022-12-18T14:59:48;-4.50;99.90
48007;DHT22;33771;48.180;11.400;2022-12-18T15:04:42;-4.50;99.90
48007;DHT22;33771;48.180;11.400;2022-12-18T15:07:23;-4.50;99.90
48007;DHT22;33771;48.180;11.400;2022-12-18T15:10:09;-4.50;99.90
48007;DHT22;33771;48.180;11.400;2022-12-18T15:20:38;-4.60;99.90
48007;DHT22;33771;48.180;11.400;2022-12-18T15:23:05;-4.50;99.90
48007;DHT22;33771;48.180;11.400;2022-12-18T15:25:37;-4.50;99.90
48007;DHT22;33771;48.180;11.400;2022-12-18T15:28:13;-4.50;99.90
48007;DHT22;33771;48.180;11.400;2022-12-18T15:36:11;-4.50;99.90
48007;DHT22;33771;48.180;11.400;2022-12-18T15:38:37;-4.50;99.90
48007;DHT22;33771;48.180;11.400;2022-12-18T15:41:03;-4.50;99.90
48007;DHT22;33771;48.180;11.400;2022-12-18T15:43:28;-4.50;99.90
48007;DHT22;33771;48.180;11.400;2022-12-18T15:46:21;-4.40;99.90
48007;DHT22;33771;48.180;11.400;2022-12-18T15:48:49;-4.50;99.90
48007;DHT22;33771;48.180;11.400;2022-12-18T15:51:31;-4.50;99.90
48007;DHT22;33771;48.180;11.400;2022-12-18T15:54:00;-4.50;99.90
48007;DHT22;33771;48.180;11.400;2022-12-18T15:56:26;-4.50;99.90
48007;DHT22;33771;48.180;11.400;2022-12-18T15:59:16;-4.50;99.90
48007;DHT22;33771;48.180;11.400;2022-12-18T16:01:44;-4.50;99.90
48007;DHT22;33771;48.180;11.400;2022-12-18T16:04:12;-4.50;99.90
48007;DHT22;33771;48.180;11.400;2022-12-18T16:06:39;-4.50;99.90
48007;DHT22;33771;48.180;11.400;2022-12-18T16:09:04;-4.50;99.90
48007;DHT22;33771;48.180;11.400;2022-12-18T16:11:32;-4.50;99.90
48007;DHT22;33771;48.180;11.400;2022-12-18T16:14:19;-4.50;99.90
48007;DHT22;33771;48.180;11.400;2022-12-18T16:16:47;-4.40;99.90
48007;DHT22;33771;48.180;11.400;2022-12-18T16:19:13;-4.40;99.90
48007;DHT22;33771;48.180;11.400;2022-12-18T16:21:39;-4.40;99.90
48007;DHT22;33771;48.180;11.400;2022-12-18T16:24:05;-4.40;99.90
48007;DHT22;33771;48.180;11.400;2022-12-18T16:26:32;-4.40;99.90
48007;DHT22;33771;48.180;11.400;2022-12-18T16:28:57;-4.40;99.90
48007;DHT22;33771;48.180;11.400;2022-12-18T16:31:23;-4.40;99.90
48007;DHT22;33771;48.180;11.400;2022-12-18T16:33:48;-4.40;99.90
48007;DHT22;33771;48.180;11.400;2022-12-18T16:36:14;-4.40;99.90
48007;DHT22;33771;48.180;11.400;2022-12-18T16:38:39;-4.40;99.90
48007;DHT22;33771;48.180;11.400;2022-12-18T16:41:19;-4.40;99.90
48007;DHT22;33771;48.180;11.400;2022-12-18T16:43:57;-4.40;99.90
48007;DHT22;33771;48.180;11.400;2022-12-18T16:46:22;-4.40;99.90
48007;DHT22;33771;48.180;11.400;2022-12-18T16:48:48;-4.50;99.90
48007;DHT22;33771;48.180;11.400;2022-12-18T16:51:14;-4.50;99.90
48007;DHT22;33771;48.180;11.400;2022-12-18T16:53:40;-4.50;99.90
48007;DHT22;33771;48.180;11.400;2022-12-18T16:56:06;-4.60;99.90
48007;DHT22;33771;48.180;11.400;2022-12-18T16:58:31;-4.60;99.90
48007;DHT22;33771;48.180;11.400;2022-12-18T17:00:57;-4.60;99.90
48007;DHT22;33771;48.180;11.400;2022-12-18T17:03:22;-4.60;99.90
48007;DHT22;33771;48.180;11.400;2022-12-18T17:05:48;-4.60;99.90
48007;DHT22;33771;48.180;11.400;2022-12-18T17:08:13;-4.60;99.90
48007;DHT22;33771;48.180;11.400;2022-12-18T17:10:39;-4.60;99.90
48007;DHT22;33771;48.180;11.400;2022-12-18T17:13:05;-4.60;99.90
48007;DHT22;33771;48.180;11.400;2022-12-18T17:15:34;-4.60;99.90
48007;DHT22;33771;48.180;11.400;2022-12-18T17:18:01;-4.60;99.90
48007;DHT22;33771;48.180;11.400;2022-12-18T17:20:26;-4.60;99.90
48007;DHT22;33771;48.180;11.400;2022-12-18T17:22:52;-4.60;99.90
48007;DHT22;33771;48.180;11.400;2022-12-18T17:25:17;-4.60;99.90
48007;DHT22;33771;48.180;11.400;2022-12-18T17:27:43;-4.60;99.90
48007;DHT22;33771;48.180;11.400;2022-12-18T17:30:09;-4.60;99.90
48007;DHT22;33771;48.180;11.400;2022-12-18T17:32:35;-4.60;99.90
48007;DHT22;33771;48.180;11.400;2022-12-18T17:35:00;-4.60;99.90
48007;DHT22;33771;48.180;11.400;2022-12-18T17:37:26;-4.70;99.90
48007;DHT22;33771;48.180;11.400;2022-12-18T17:39:52;-4.70;99.90
48007;DHT22;33771;48.180;11.400;2022-12-18T17:42:17;-4.60;99.90
48007;DHT22;33771;48.180;11.400;2022-12-18T17:44:43;-4.60;99.90
48007;DHT22;33771;48.180;11.400;2022-12-18T17:47:09;-4.60;99.90
48007;DHT22;33771;48.180;11.400;2022-12-18T17:49:36;-4.60;99.90
48007;DHT22;33771;48.180;11.400;2022-12-18T17:52:02;-4.60;99.90
48007;DHT22;33771;48.180;11.400;2022-12-18T17:54:27;-4.70;99.90
48007;DHT22;33771;48.180;11.400;2022-12-18T17:56:53;-4.70;99.90
48007;DHT22;33771;48.180;11.400;2022-12-18T17:59:18;-4.70;99.90